Skillman, New Jersey
Current Conditions -  °F | °C
As of 2:53 AM on Monday 26 Jan 2015 (Local Time) from KTTN Reporting Station
Light Snow Light Snow  
Wind Chill: 17°   Ceiling: 2600
Heat Index: 27°   Visibility: 5mi
Dew Point: 20°   Wind: 10mph
Humidity: 75%   Direction: 50°NE
Pressure: 29.97"   Gusts: NA
Location:  40.42°N, 74.71°W
Report Text: KTTN 260753Z AUTO 05009KT 5SM -SN OVC026 M03/M07 A2997 RMK AO2 SNB06 SLP143 P0000 T10281067
Loading
Personal Weather Stations






























Interactive Weather Map New forecast layout! Learn more

10-Day Weather Forecast

Advertisements
Track Severe Weather on mobile